Time;durP1;ratioP1;P1;durP2;ratioP2;P2;SDS_P1;SDS_P2;PMS_P1;PMS_P2;Temp;Humidity;BMP_temperature;BMP_pressure;BME280_temperature;BME280_humidity;BME280_pressure;Samples;Min_cycle;Max_cycle;Signal;HPM_P1;HPM_P2
2022/07/23 00:01:00;;;;;;;9.70;9.00;;;;;;;24.41;96.31;100161.56;4943812;29;20234;-76
2022/07/23 00:03:26;;;;;;;9.60;8.80;;;;;;;24.38;96.13;100170.53;4962894;28;20198;-76
2022/07/23 00:05:52;;;;;;;9.50;8.80;;;;;;;24.34;96.15;100169.91;4945602;28;20624;-75
2022/07/23 00:08:17;;;;;;;9.50;8.80;;;;;;;24.31;95.96;100164.00;4938465;28;20666;-75
2022/07/23 00:10:42;;;;;;;9.43;8.67;;;;;;;24.27;95.75;100166.03;4945199;29;20288;-78
2022/07/23 00:13:08;;;;;;;9.10;8.50;;;;;;;24.24;95.83;100166.22;4941915;28;20277;-77
2022/07/23 00:15:33;;;;;;;8.77;8.17;;;;;;;24.20;95.70;100156.78;4947567;28;20779;-76
2022/07/23 00:17:59;;;;;;;8.57;7.97;;;;;;;24.17;94.85;100154.34;4945845;28;20317;-76
2022/07/23 00:20:24;;;;;;;8.43;7.93;;;;;;;24.12;94.45;100159.97;4940217;28;20647;-75
2022/07/23 00:22:52;;;;;;;9.20;8.50;;;;;;;24.08;94.37;100168.22;4948529;28;20682;-74
2022/07/23 00:25:18;;;;;;;8.47;7.83;;;;;;;24.03;94.02;100171.19;4944057;29;20241;-74
2022/07/23 00:27:43;;;;;;;8.23;7.63;;;;;;;24.00;94.16;100179.31;4947939;28;20236;-76
2022/07/23 00:30:10;;;;;;;8.87;8.17;;;;;;;23.96;94.31;100180.41;4942615;29;22171;-75
2022/07/23 00:32:46;;;;;;;8.53;7.90;;;;;;;23.93;94.37;100176.19;4958123;28;20187;-75
2022/07/23 00:35:13;;;;;;;8.13;7.50;;;;;;;23.88;94.65;100181.78;4943389;29;20791;-75
2022/07/23 00:37:38;;;;;;;7.83;7.27;;;;;;;23.85;94.52;100179.34;4937000;29;20246;-76
2022/07/23 00:40:04;;;;;;;7.23;6.63;;;;;;;23.82;94.51;100179.53;4956887;28;20326;-75
2022/07/23 00:42:31;;;;;;;7.33;6.83;;;;;;;23.80;93.93;100178.78;4941131;28;20194;-76
2022/07/23 00:44:56;;;;;;;7.13;6.63;;;;;;;23.77;93.28;100176.34;4946351;28;20269;-76
2022/07/23 00:47:22;;;;;;;7.70;7.10;;;;;;;23.77;92.38;100165.78;4942788;28;20317;-75
2022/07/23 00:49:47;;;;;;;7.43;6.70;;;;;;;23.75;91.35;100162.41;4947736;28;20560;-75
2022/07/23 00:52:12;;;;;;;6.50;6.00;;;;;;;23.73;90.50;100159.88;4943166;28;20199;-74
2022/07/23 00:54:38;;;;;;;7.40;6.80;;;;;;;23.70;89.64;100148.66;4943965;28;20298;-74
2022/07/23 00:57:04;;;;;;;6.70;6.10;;;;;;;23.67;89.27;100143.56;4943368;28;20663;-74
2022/07/23 00:59:29;;;;;;;6.50;6.00;;;;;;;23.63;89.44;100136.78;4944813;28;20214;-76
2022/07/23 01:01:55;;;;;;;6.20;5.73;;;;;;;23.59;89.49;100136.16;4949547;28;20243;-76
2022/07/23 01:04:20;;;;;;;5.70;5.30;;;;;;;23.56;89.25;100136.34;4939551;28;20219;-74
2022/07/23 01:06:46;;;;;;;6.17;5.73;;;;;;;23.55;89.10;100140.81;4943720;28;20307;-75
2022/07/23 01:09:11;;;;;;;6.43;5.93;;;;;;;23.53;88.52;100136.56;4945153;28;20214;-76
2022/07/23 01:11:37;;;;;;;6.03;5.63;;;;;;;23.51;88.38;100133.19;4947033;28;20203;-77
2022/07/23 01:14:15;;;;;;;5.97;5.57;;;;;;;23.50;88.49;100148.19;4947385;28;20198;-76
2022/07/23 01:16:41;;;;;;;6.27;5.87;;;;;;;23.48;88.86;100159.78;4950296;28;20187;-76
2022/07/23 01:19:11;;;;;;;5.47;4.97;;;;;;;23.46;89.27;100151.13;4949204;28;20301;-75
2022/07/23 01:21:42;;;;;;;5.67;5.27;;;;;;;23.41;89.12;100162.81;4942210;28;20982;-75
2022/07/23 01:24:08;;;;;;;5.83;5.43;;;;;;;23.38;89.19;100154.25;4963656;28;20191;-76
2022/07/23 01:26:34;;;;;;;6.03;5.63;;;;;;;23.36;89.40;100154.38;4945602;29;20322;-76
2022/07/23 01:29:00;;;;;;;5.73;5.27;;;;;;;23.33;89.30;100156.34;4946374;28;20286;-75
2022/07/23 01:31:26;;;;;;;5.50;5.10;;;;;;;23.28;89.52;100154.00;4946789;28;20587;-76
2022/07/23 01:33:51;;;;;;;5.77;5.37;;;;;;;23.22;89.99;100152.63;4944271;29;20193;-76
2022/07/23 01:36:16;;;;;;;5.80;5.40;;;;;;;23.18;89.68;100145.78;4944780;29;20646;-76
2022/07/23 01:38:42;;;;;;;5.73;5.33;;;;;;;23.13;89.70;100145.25;4948152;28;20202;-76
2022/07/23 01:41:07;;;;;;;5.67;5.27;;;;;;;23.06;89.19;100136.91;4943968;28;20217;-76
2022/07/23 01:43:32;;;;;;;5.40;5.00;;;;;;;23.02;89.41;100147.72;4948519;28;20229;-75
2022/07/23 01:45:58;;;;;;;5.27;4.87;;;;;;;22.97;89.59;100146.25;4942370;29;20683;-77
2022/07/23 01:48:26;;;;;;;4.90;4.50;;;;;;;22.94;89.68;100154.34;4941697;29;20238;-76
2022/07/23 01:50:51;;;;;;;5.40;4.93;;;;;;;22.89;89.82;100148.50;4946616;29;20195;-76
2022/07/23 01:53:17;;;;;;;5.70;5.20;;;;;;;22.83;89.66;100147.09;4950188;28;20216;-76
2022/07/23 01:55:43;;;;;;;5.80;5.40;;;;;;;22.80;89.47;100143.81;4950437;28;20301;-76
2022/07/23 01:58:08;;;;;;;5.60;5.20;;;;;;;22.76;88.49;100143.16;4947525;29;20210;-76
2022/07/23 02:00:34;;;;;;;5.37;4.97;;;;;;;22.73;88.81;100140.72;4943599;28;20190;-76
2022/07/23 02:02:59;;;;;;;5.13;4.73;;;;;;;22.71;89.46;100153.16;4942445;29;20195;-75
2022/07/23 02:05:25;;;;;;;6.00;5.50;;;;;;;22.69;89.55;100155.03;4946944;29;20198;-76
2022/07/23 02:07:52;;;;;;;5.73;5.20;;;;;;;22.66;89.39;100152.56;4962781;28;20214;-76
2022/07/23 02:10:17;;;;;;;5.97;5.47;;;;;;;22.63;88.88;100158.91;4943976;28;20579;-77
2022/07/23 02:12:43;;;;;;;5.90;5.43;;;;;;;22.60;88.60;100161.72;4950068;28;20213;-76
2022/07/23 02:15:09;;;;;;;5.73;5.27;;;;;;;22.58;89.03;100160.13;4946091;28;20220;-77
2022/07/23 02:17:34;;;;;;;6.23;5.63;;;;;;;22.55;88.71;100157.66;4955782;28;20330;-77
2022/07/23 02:20:00;;;;;;;6.13;5.63;;;;;;;22.52;89.05;100164.00;4961463;28;20675;-76
2022/07/23 02:22:25;;;;;;;5.70;5.23;;;;;;;22.51;88.93;100165.75;4945491;28;20672;-76
2022/07/23 02:24:50;;;;;;;5.63;5.23;;;;;;;22.48;89.61;100165.94;4945767;29;20607;-76
2022/07/23 02:27:16;;;;;;;5.60;5.20;;;;;;;22.49;89.25;100162.38;4948958;28;20214;-76
2022/07/23 02:29:44;;;;;;;5.17;4.80;;;;;;;22.46;89.46;100159.91;4943862;28;20215;-76
2022/07/23 02:32:09;;;;;;;5.87;5.30;;;;;;;22.43;90.16;100165.41;4963137;28;20564;-76
2022/07/23 02:34:34;;;;;;;5.70;5.30;;;;;;;22.39;89.66;100167.31;4946092;29;20194;-78
2022/07/23 02:37:00;;;;;;;5.70;5.20;;;;;;;22.37;90.30;100181.53;4950253;28;20179;-76
2022/07/23 02:39:25;;;;;;;5.47;5.07;;;;;;;22.36;90.77;100183.34;4964096;28;20214;-75
2022/07/23 02:41:51;;;;;;;5.20;4.80;;;;;;;22.36;91.17;100187.75;4944976;28;20188;-76
2022/07/23 02:44:16;;;;;;;5.33;4.93;;;;;;;22.34;91.20;100189.63;4946070;28;20191;-75
2022/07/23 02:46:42;;;;;;;5.43;5.03;;;;;;;22.33;91.19;100194.06;4949957;28;20301;-75
2022/07/23 02:49:07;;;;;;;4.73;4.43;;;;;;;22.32;91.61;100195.00;4941883;28;20211;-76
2022/07/23 02:51:33;;;;;;;5.63;5.23;;;;;;;22.31;91.58;100198.56;4948740;28;20205;-76
2022/07/23 02:53:58;;;;;;;5.60;5.20;;;;;;;22.32;91.80;100202.03;4939307;28;20202;-77
2022/07/23 02:56:23;;;;;;;4.80;4.50;;;;;;;22.31;91.54;100205.66;4948824;28;20187;-76
2022/07/23 02:58:49;;;;;;;5.10;4.70;;;;;;;22.29;91.41;100211.00;4960683;28;20277;-76
2022/07/23 03:01:14;;;;;;;5.50;5.10;;;;;;;22.32;91.91;100216.09;4945863;29;20205;-76
2022/07/23 03:03:39;;;;;;;5.50;5.10;;;;;;;22.36;92.13;100211.47;4948936;29;20186;-76
2022/07/23 03:06:05;;;;;;;5.47;5.07;;;;;;;22.40;92.18;100213.00;4947481;28;20233;-76
2022/07/23 03:08:30;;;;;;;5.70;5.30;;;;;;;22.43;92.65;100220.75;4945513;29;20210;-76
2022/07/23 03:10:56;;;;;;;5.30;5.00;;;;;;;22.44;92.33;100217.19;4948841;28;20301;-76
2022/07/23 03:13:21;;;;;;;5.50;5.10;;;;;;;22.41;92.44;100230.53;4941917;28;20195;-76
2022/07/23 03:15:47;;;;;;;5.33;4.93;;;;;;;22.38;92.85;100239.47;4942067;28;20245;-77
2022/07/23 03:18:12;;;;;;;5.20;4.80;;;;;;;22.36;92.69;100235.22;4947686;28;20215;-74
2022/07/23 03:20:38;;;;;;;5.53;5.13;;;;;;;22.37;92.77;100239.53;4943699;28;20674;-77
2022/07/23 03:23:03;;;;;;;5.20;4.80;;;;;;;22.36;92.44;100227.28;4941185;29;20199;-75
2022/07/23 03:25:28;;;;;;;5.33;4.97;;;;;;;22.35;92.10;100218.56;4942192;28;20191;-76
2022/07/23 03:27:54;;;;;;;5.97;5.57;;;;;;;22.35;91.72;100229.09;4947592;28;20687;-75
2022/07/23 03:30:19;;;;;;;6.00;5.50;;;;;;;22.32;91.84;100226.63;4962918;28;20195;-75
2022/07/23 03:32:45;;;;;;;5.57;5.17;;;;;;;22.31;92.03;100227.56;4948156;28;20318;-78
2022/07/23 03:35:10;;;;;;;5.70;5.30;;;;;;;22.29;92.39;100232.09;4943824;28;20621;-77
2022/07/23 03:37:35;;;;;;;5.43;5.03;;;;;;;22.29;92.64;100233.88;4942830;29;20194;-76
2022/07/23 03:40:01;;;;;;;5.70;5.20;;;;;;;22.29;92.73;100223.34;4944839;28;20245;-77
2022/07/23 03:42:27;;;;;;;5.93;5.53;;;;;;;22.27;92.83;100226.06;4961336;28;20215;-75
2022/07/23 03:44:52;;;;;;;6.33;5.83;;;;;;;22.27;92.57;100217.31;4961702;28;20198;-74
2022/07/23 03:47:21;;;;;;;7.10;6.50;;;;;;;22.29;91.99;100204.88;4953094;28;20686;-76
2022/07/23 03:49:47;;;;;;;6.67;6.13;;;;;;;22.32;91.62;100212.59;4944406;28;20686;-76
2022/07/23 03:52:13;;;;;;;6.87;6.27;;;;;;;22.36;91.64;100198.28;4947780;29;20314;-76
2022/07/23 03:54:38;;;;;;;7.20;6.60;;;;;;;22.36;91.31;100195.66;4944896;28;20273;-76
2022/07/23 03:57:04;;;;;;;7.10;6.40;;;;;;;22.37;91.37;100203.50;4944179;28;20218;-76
2022/07/23 03:59:37;;;;;;;6.23;5.73;;;;;;;22.36;91.29;100212.34;4942811;28;20214;-76
2022/07/23 04:02:02;;;;;;;7.00;6.40;;;;;;;22.35;91.12;100228.22;4941695;29;20310;-76
2022/07/23 04:04:27;;;;;;;6.47;6.00;;;;;;;22.34;91.43;100234.44;4940156;29;20273;-76
2022/07/23 04:06:56;;;;;;;6.60;6.10;;;;;;;22.33;92.12;100241.53;4939227;28;20220;-77
2022/07/23 04:09:21;;;;;;;5.97;5.57;;;;;;;22.33;92.48;100254.69;4939890;28;20206;-76
2022/07/23 04:11:46;;;;;;;6.17;5.77;;;;;;;22.33;92.46;100254.69;4943430;28;20725;-76
2022/07/23 04:14:12;;;;;;;6.13;5.73;;;;;;;22.34;92.65;100259.03;4947416;28;20229;-76
2022/07/23 04:16:37;;;;;;;6.00;5.60;;;;;;;22.37;92.62;100250.94;4944370;29;20198;-76
2022/07/23 04:19:04;;;;;;;5.53;5.17;;;;;;;22.38;92.69;100249.16;4949207;28;20223;-76
2022/07/23 04:21:29;;;;;;;6.00;5.60;;;;;;;22.39;93.04;100256.97;4946466;28;20221;-76
2022/07/23 04:23:55;;;;;;;5.80;5.40;;;;;;;22.38;93.14;100247.38;4947792;29;20210;-76
2022/07/23 04:26:21;;;;;;;5.70;5.30;;;;;;;22.38;92.85;100251.78;4944184;28;20273;-76
2022/07/23 04:28:46;;;;;;;5.70;5.27;;;;;;;22.39;92.41;100246.41;4944250;28;20273;-76
2022/07/23 04:31:12;;;;;;;6.50;6.00;;;;;;;22.44;92.51;100245.31;4946224;29;21603;-76
2022/07/23 04:33:37;;;;;;;6.07;5.67;;;;;;;22.48;91.91;100249.50;4960958;28;20214;-76
2022/07/23 04:36:03;;;;;;;6.53;5.93;;;;;;;22.55;92.01;100252.59;4943114;29;20196;-76
2022/07/23 04:38:28;;;;;;;6.50;6.00;;;;;;;22.55;91.86;100253.44;4940894;28;20641;-77
2022/07/23 04:40:53;;;;;;;5.97;5.47;;;;;;;22.60;92.45;100264.56;4962719;28;20685;-76
2022/07/23 04:43:19;;;;;;;6.27;5.67;;;;;;;22.63;92.47;100285.50;4944686;28;20191;-76
2022/07/23 04:45:46;;;;;;;6.23;5.73;;;;;;;22.70;92.30;100291.25;4947052;28;20187;-76
2022/07/23 04:48:11;;;;;;;5.80;5.40;;;;;;;22.74;92.15;100279.59;4965577;28;20211;-76
2022/07/23 04:50:37;;;;;;;5.90;5.50;;;;;;;22.75;91.20;100270.72;4950440;29;20665;-77
2022/07/23 04:53:02;;;;;;;6.30;5.70;;;;;;;22.75;91.54;100277.78;4951497;28;20183;-76
2022/07/23 04:55:28;;;;;;;5.97;5.57;;;;;;;22.73;91.45;100283.16;4947178;28;20249;-77
2022/07/23 04:57:53;;;;;;;6.10;5.70;;;;;;;22.72;91.45;100292.00;4950707;28;20199;-77
2022/07/23 05:00:18;;;;;;;6.23;5.63;;;;;;;22.72;91.44;100292.00;4952138;28;20249;-78
2022/07/23 05:02:44;;;;;;;5.60;5.20;;;;;;;22.72;91.35;100285.88;4950776;28;20595;-77
2022/07/23 05:05:12;;;;;;;5.67;5.00;;;;;;;22.74;91.47;100281.34;4948441;28;20201;-77
2022/07/23 05:07:38;;;;;;;5.50;5.10;;;;;;;22.77;91.69;100275.91;4949687;28;20216;-78
2022/07/23 05:10:04;;;;;;;5.33;4.93;;;;;;;22.81;92.02;100283.53;4945244;28;20211;-74
2022/07/23 05:12:29;;;;;;;5.70;5.20;;;;;;;22.84;92.09;100286.00;4948358;28;20198;-75
2022/07/23 05:14:54;;;;;;;5.37;4.97;;;;;;;22.89;92.43;100280.44;4959424;28;20270;-76
2022/07/23 05:17:20;;;;;;;5.53;5.17;;;;;;;22.91;92.87;100286.47;4946954;28;20183;-76
2022/07/23 05:19:47;;;;;;;5.50;5.10;;;;;;;22.94;92.67;100272.22;4941494;28;20210;-74
2022/07/23 05:22:13;;;;;;;5.77;5.37;;;;;;;22.97;92.72;100270.28;4946749;28;20202;-76
2022/07/23 05:24:38;;;;;;;5.63;5.23;;;;;;;23.05;92.69;100269.78;4946903;29;20190;-76
2022/07/23 05:27:03;;;;;;;5.37;4.97;;;;;;;23.15;93.23;100270.03;4948595;29;20262;-76
2022/07/23 05:29:29;;;;;;;5.90;5.50;;;;;;;23.25;93.46;100275.63;4944400;28;20203;-77
2022/07/23 05:31:54;;;;;;;6.17;5.67;;;;;;;23.32;93.95;100276.97;4950042;28;20249;-76
2022/07/23 05:34:19;;;;;;;5.80;5.40;;;;;;;23.38;94.46;100270.44;4950898;28;20186;-76
2022/07/23 05:36:45;;;;;;;5.63;5.23;;;;;;;23.41;94.94;100275.53;4948883;28;20230;-76
2022/07/23 05:39:10;;;;;;;5.97;5.57;;;;;;;23.41;95.74;100286.94;4950656;29;20584;-76
2022/07/23 05:41:36;;;;;;;6.40;5.80;;;;;;;23.39;96.05;100283.53;4949438;28;20207;-76
2022/07/23 05:44:01;;;;;;;5.60;5.10;;;;;;;23.35;96.59;100295.25;4949170;28;20193;-76
2022/07/23 05:46:27;;;;;;;5.70;5.30;;;;;;;23.30;96.45;100299.97;4944134;29;20210;-75
2022/07/23 05:48:52;;;;;;;6.00;5.50;;;;;;;23.23;96.88;100310.06;4959657;28;20771;-76
2022/07/23 05:51:21;;;;;;;5.80;5.40;;;;;;;23.16;97.13;100315.78;4941404;28;20188;-78
2022/07/23 05:53:47;;;;;;;6.47;6.07;;;;;;;23.05;97.11;100312.03;4944193;29;20281;-77
2022/07/23 05:56:13;;;;;;;5.87;5.47;;;;;;;22.96;97.97;100320.47;4938971;28;20194;-76
2022/07/23 05:58:38;;;;;;;5.90;5.40;;;;;;;22.92;98.45;100330.38;4942900;28;20206;-76
2022/07/23 06:01:04;;;;;;;6.70;6.10;;;;;;;22.89;99.42;100335.84;4947272;28;20203;-77
2022/07/23 06:03:29;;;;;;;7.13;6.63;;;;;;;22.87;100.00;100343.00;4944071;28;20223;-75
2022/07/23 06:05:54;;;;;;;7.90;7.20;;;;;;;22.82;100.00;100359.09;4943895;28;20187;-76
2022/07/23 06:08:20;;;;;;;8.10;7.43;;;;;;;22.76;100.00;100374.44;4955095;28;20237;-75
2022/07/23 06:10:45;;;;;;;7.80;7.00;;;;;;;22.63;100.00;100359.34;4942764;29;20322;-75
2022/07/23 06:13:10;;;;;;;8.23;7.50;;;;;;;22.50;100.00;100351.28;4953687;28;20183;-75
2022/07/23 06:15:36;;;;;;;8.90;8.10;;;;;;;22.41;100.00;100340.38;4947651;29;20318;-75
2022/07/23 06:18:01;;;;;;;7.90;7.30;;;;;;;22.34;100.00;100335.50;4942342;29;20251;-75
2022/07/23 06:20:27;;;;;;;8.40;7.67;;;;;;;22.36;100.00;100338.91;4947904;28;20206;-75
2022/07/23 06:22:52;;;;;;;7.43;6.83;;;;;;;22.41;100.00;100349.16;4947384;28;21249;-75
2022/07/23 06:25:17;;;;;;;7.60;7.00;;;;;;;22.45;100.00;100352.50;4940706;29;20187;-76
2022/07/23 06:27:43;;;;;;;8.00;7.30;;;;;;;22.47;100.00;100348.81;4949385;28;20654;-76
2022/07/23 06:30:10;;;;;;;8.20;7.60;;;;;;;22.43;100.00;100349.97;4950133;28;20218;-75
2022/07/23 06:32:35;;;;;;;8.10;7.50;;;;;;;22.38;100.00;100360.75;4950114;28;20186;-75
2022/07/23 06:35:01;;;;;;;7.80;7.20;;;;;;;22.38;100.00;100358.13;4950718;28;20654;-75
2022/07/23 06:37:26;;;;;;;8.40;7.60;;;;;;;22.42;100.00;100371.13;4950496;29;20217;-75
2022/07/23 06:39:51;;;;;;;7.63;7.00;;;;;;;22.52;100.00;100373.16;4950553;28;20694;-75
2022/07/23 06:42:17;;;;;;;7.17;6.67;;;;;;;22.65;100.00;100359.25;4947724;29;20619;-75
2022/07/23 06:44:42;;;;;;;7.10;6.50;;;;;;;22.84;100.00;100349.31;4947616;29;20193;-75
2022/07/23 06:47:08;;;;;;;7.40;6.70;;;;;;;23.14;100.00;100351.03;4950525;28;20215;-75
2022/07/23 06:49:33;;;;;;;7.80;7.20;;;;;;;23.42;100.00;100348.53;4949964;28;20627;-75
2022/07/23 06:51:59;;;;;;;8.43;7.73;;;;;;;23.48;100.00;100358.72;4950432;28;20189;-75
2022/07/23 06:54:24;;;;;;;7.23;6.73;;;;;;;23.39;100.00;100365.41;4950324;28;20562;-75
2022/07/23 06:56:49;;;;;;;7.57;7.03;;;;;;;23.26;100.00;100367.09;4948925;29;20199;-76
2022/07/23 06:59:15;;;;;;;10.13;7.00;;;;;;;23.13;100.00;100373.09;4959595;28;20226;-75
2022/07/23 07:01:40;;;;;;;7.43;6.83;;;;;;;23.01;100.00;100359.78;4938992;28;20222;-75
2022/07/23 07:04:05;;;;;;;8.57;7.87;;;;;;;22.90;100.00;100360.47;4944326;28;20338;-75
2022/07/23 07:06:31;;;;;;;8.07;7.47;;;;;;;22.82;100.00;100366.19;4940933;28;20245;-75
2022/07/23 07:08:57;;;;;;;8.00;7.40;;;;;;;22.80;100.00;100357.50;4938962;28;20210;-74
2022/07/23 07:11:23;;;;;;;7.90;7.30;;;;;;;22.80;100.00;100355.72;4941830;28;20225;-75
2022/07/23 07:13:49;;;;;;;7.97;7.37;;;;;;;22.90;100.00;100353.38;4942815;28;20186;-75
2022/07/23 07:16:14;;;;;;;7.53;6.93;;;;;;;23.08;100.00;100369.03;4936866;29;20245;-74
2022/07/23 07:18:40;;;;;;;7.23;6.73;;;;;;;23.28;100.00;100375.78;4944190;28;20207;-75
2022/07/23 07:21:05;;;;;;;7.80;7.20;;;;;;;23.51;100.00;100381.47;4939958;29;20190;-75
2022/07/23 07:23:31;;;;;;;7.63;7.03;;;;;;;23.67;100.00;100371.59;4944164;29;20191;-75
2022/07/23 07:25:57;;;;;;;7.40;6.90;;;;;;;23.77;100.00;100373.69;4938604;28;20843;-74
2022/07/23 07:28:22;;;;;;;7.67;7.07;;;;;;;23.83;100.00;100379.44;4945817;28;20765;-74
2022/07/23 07:30:47;;;;;;;7.13;6.57;;;;;;;23.88;100.00;100382.66;4939847;28;20666;-76
2022/07/23 07:33:13;;;;;;;7.30;6.80;;;;;;;23.93;100.00;100382.34;4938570;28;20289;-75
2022/07/23 07:35:38;;;;;;;7.87;7.27;;;;;;;24.34;100.00;100375.38;4938426;28;20201;-75
2022/07/23 07:38:04;;;;;;;7.67;6.97;;;;;;;24.54;100.00;100379.34;4930303;28;20211;-74
2022/07/23 07:40:29;;;;;;;7.47;6.87;;;;;;;24.57;100.00;100378.28;4939665;28;20290;-74
2022/07/23 07:42:56;;;;;;;7.63;6.93;;;;;;;24.50;100.00;100386.59;4943608;28;20673;-75
2022/07/23 07:45:23;;;;;;;7.10;6.60;;;;;;;24.43;100.00;100389.78;4961374;28;20934;-75
2022/07/23 07:47:48;;;;;;;8.87;8.07;;;;;;;24.44;100.00;100389.66;4944505;28;20297;-75
2022/07/23 07:50:14;;;;;;;8.63;7.93;;;;;;;24.98;100.00;100393.19;4944983;28;20396;-75
2022/07/23 07:52:40;;;;;;;8.37;7.67;;;;;;;25.67;100.00;100398.19;4951952;28;20341;-75
2022/07/23 07:55:08;;;;;;;7.80;7.20;;;;;;;26.41;100.00;100397.31;4960356;28;20225;-75
2022/07/23 07:57:34;;;;;;;6.83;6.23;;;;;;;27.10;99.20;100401.03;4944563;28;20678;-76
2022/07/23 07:59:59;;;;;;;7.67;7.07;;;;;;;27.27;97.47;100405.06;4942955;28;20209;-76
2022/07/23 08:02:25;;;;;;;7.23;6.73;;;;;;;27.20;96.64;100404.72;4944134;28;20221;-76
2022/07/23 08:04:50;;;;;;;7.13;6.63;;;;;;;27.01;97.29;100409.72;4944627;28;20624;-75
2022/07/23 08:07:16;;;;;;;7.23;6.73;;;;;;;26.95;97.69;100408.41;4963748;28;20214;-75
2022/07/23 08:09:41;;;;;;;6.90;6.30;;;;;;;27.33;96.75;100412.53;4948498;28;20206;-76
2022/07/23 08:12:07;;;;;;;7.80;7.20;;;;;;;27.60;95.39;100414.06;4946265;29;20194;-76
2022/07/23 08:14:32;;;;;;;6.93;6.40;;;;;;;27.60;95.43;100414.06;4943545;29;21082;-76
2022/07/23 08:16:58;;;;;;;7.33;6.73;;;;;;;27.52;95.94;100409.34;4948847;28;20270;-76
2022/07/23 08:19:23;;;;;;;6.70;6.20;;;;;;;27.68;95.73;100411.63;4948238;28;20234;-76
2022/07/23 08:21:48;;;;;;;6.97;6.47;;;;;;;27.94;94.50;100410.50;4947091;28;20182;-75
2022/07/23 08:24:14;;;;;;;7.00;6.40;;;;;;;28.14;93.03;100422.22;4941966;28;20203;-76
2022/07/23 08:26:40;;;;;;;6.87;6.37;;;;;;;28.24;92.52;100417.00;4944348;29;20198;-76
2022/07/23 08:29:06;;;;;;;6.53;6.10;;;;;;;28.35;91.85;100424.94;4947177;28;20273;-76
2022/07/23 08:31:32;;;;;;;7.27;6.77;;;;;;;28.34;90.60;100425.09;4945950;28;20242;-75
2022/07/23 08:33:59;;;;;;;6.80;6.30;;;;;;;28.31;89.81;100426.16;4942304;28;20280;-75
2022/07/23 08:36:27;;;;;;;7.57;6.97;;;;;;;28.35;90.08;100432.09;4946548;28;20187;-75
2022/07/23 08:38:53;;;;;;;7.00;6.50;;;;;;;28.40;90.42;100433.41;4950140;28;20346;-75
2022/07/23 08:41:19;;;;;;;7.03;6.53;;;;;;;28.50;89.62;100443.28;4947150;28;20277;-75
2022/07/23 08:43:44;;;;;;;7.27;6.67;;;;;;;28.53;89.70;100440.38;4943504;28;20183;-75
2022/07/23 08:46:10;;;;;;;7.57;6.97;;;;;;;28.52;89.82;100434.19;4945212;28;20239;-74
2022/07/23 08:48:38;;;;;;;7.43;6.83;;;;;;;28.49;89.21;100434.47;4944901;28;20261;-75
2022/07/23 08:51:06;;;;;;;7.37;6.77;;;;;;;28.45;89.56;100428.53;4943383;28;20191;-76
2022/07/23 08:53:33;;;;;;;7.50;6.90;;;;;;;28.43;89.24;100430.50;4946249;29;20241;-76
2022/07/23 08:56:03;;;;;;;8.03;7.43;;;;;;;28.44;89.41;100434.81;4942263;28;20186;-76
2022/07/23 08:58:30;;;;;;;7.60;7.00;;;;;;;28.55;89.81;100427.78;4944491;28;20214;-76
2022/07/23 09:00:56;;;;;;;7.53;7.00;;;;;;;28.63;88.64;100429.81;4946814;29;20265;-76
2022/07/23 09:03:27;;;;;;;7.67;7.17;;;;;;;28.73;88.10;100420.09;4947506;29;20175;-77
2022/07/23 09:05:55;;;;;;;7.10;6.40;;;;;;;28.87;87.92;100425.09;4947902;29;20663;-76
2022/07/23 09:08:35;;;;;;;7.80;7.23;;;;;;;29.09;86.97;100423.28;4947118;28;20202;-75
2022/07/23 09:11:04;;;;;;;8.47;7.77;;;;;;;29.15;85.48;100424.59;4948115;28;20237;-76
2022/07/23 09:13:37;;;;;;;8.27;7.67;;;;;;;29.20;85.42;100420.53;4947207;28;20303;-77
2022/07/23 09:16:10;;;;;;;8.40;7.70;;;;;;;29.23;85.00;100414.09;4959841;28;20226;-76
2022/07/23 09:18:44;;;;;;;8.43;7.83;;;;;;;29.27;85.00;100406.72;4940281;29;20210;-76
2022/07/23 09:21:12;;;;;;;7.57;7.07;;;;;;;29.23;85.45;100413.28;4947523;28;20198;-76
2022/07/23 09:23:43;;;;;;;8.07;7.37;;;;;;;29.17;84.50;100409.31;4965084;28;20198;-77
2022/07/23 09:26:49;;;;;;;8.40;7.73;;;;;;;28.98;84.52;100413.53;4947682;29;20194;-78
2022/07/23 09:29:22;;;;;;;7.90;7.40;;;;;;;28.88;83.97;100412.66;4957024;28;20617;-77
2022/07/23 09:31:56;;;;;;;7.70;7.20;;;;;;;28.85;84.35;100408.41;4948207;28;20223;-78
2022/07/23 09:34:27;;;;;;;8.17;7.53;;;;;;;28.93;84.53;100409.59;4949816;28;20205;-77
2022/07/23 09:36:56;;;;;;;8.27;7.67;;;;;;;28.90;83.23;100398.22;4950297;29;20217;-77
2022/07/23 09:39:30;;;;;;;8.27;7.60;;;;;;;28.79;82.54;100398.28;4947993;28;20570;-77
2022/07/23 09:41:56;;;;;;;8.27;7.67;;;;;;;28.77;82.73;100402.91;4965219;28;20193;-76
2022/07/23 09:44:23;;;;;;;7.50;6.90;;;;;;;28.81;82.10;100411.47;4947592;28;20190;-77
2022/07/23 09:46:57;;;;;;;8.03;7.43;;;;;;;28.89;82.39;100409.00;4967666;28;20211;-76
2022/07/23 09:49:23;;;;;;;7.67;7.17;;;;;;;28.94;82.72;100406.78;4949057;28;20210;-77
2022/07/23 09:51:48;;;;;;;7.20;6.57;;;;;;;29.03;82.39;100410.47;4947669;28;20214;-75
2022/07/23 09:54:40;;;;;;;6.87;6.30;;;;;;;29.08;81.32;100410.09;4949149;28;20210;-77
2022/07/23 09:57:16;;;;;;;7.20;6.60;;;;;;;29.07;77.94;100414.59;4962289;28;20202;-75
2022/07/23 09:59:44;;;;;;;7.60;7.10;;;;;;;28.99;78.19;100409.91;4948705;28;20214;-77
2022/07/23 10:02:12;;;;;;;6.87;6.37;;;;;;;28.99;78.20;100407.25;4961963;28;20183;-76
2022/07/23 10:04:38;;;;;;;7.20;6.70;;;;;;;29.04;78.24;100410.34;4947824;28;20727;-76
2022/07/23 10:07:07;;;;;;;7.63;7.10;;;;;;;29.15;77.22;100404.09;4946918;28;20225;-75
2022/07/23 10:09:36;;;;;;;7.40;6.80;;;;;;;29.21;77.55;100405.38;4950190;28;20207;-77
2022/07/23 10:14:49;;;;;;;7.30;6.70;;;;;;;29.34;77.10;100414.03;4947699;29;20274;-77
2022/07/23 10:17:15;;;;;;;7.50;6.90;;;;;;;29.40;76.20;100406.50;4948377;28;20190;-77
2022/07/23 10:19:41;;;;;;;7.73;7.13;;;;;;;29.47;75.52;100410.34;4949954;28;20229;-76
2022/07/23 10:22:13;;;;;;;7.60;7.00;;;;;;;29.65;75.30;100399.88;4952821;28;20179;-77
2022/07/23 10:24:45;;;;;;;7.67;7.17;;;;;;;29.83;75.82;100412.56;4947366;28;20201;-77
2022/07/23 10:27:29;;;;;;;7.30;6.80;;;;;;;29.96;76.07;100403.34;4950728;28;20214;-75
2022/07/23 10:30:33;;;;;;;6.80;6.30;;;;;;;30.11;75.68;100409.13;4947271;28;20709;-75
2022/07/23 10:33:29;;;;;;;7.17;6.67;;;;;;;30.13;73.49;100402.81;4948622;28;20730;-75
2022/07/23 10:36:15;;;;;;;7.20;6.70;;;;;;;30.06;73.67;100408.69;4948621;28;21099;-76
2022/07/23 10:38:53;;;;;;;7.50;7.00;;;;;;;30.05;73.41;100403.50;4949316;28;20716;-76
2022/07/23 10:41:48;;;;;;;7.27;6.67;;;;;;;30.02;73.38;100401.97;4946275;28;20194;-77
2022/07/23 10:44:19;;;;;;;7.70;7.20;;;;;;;30.06;73.36;100399.84;4945192;28;20198;-76
2022/07/23 10:47:05;;;;;;;7.10;6.60;;;;;;;30.13;73.84;100408.97;4940050;28;20543;-76
2022/07/23 10:49:33;;;;;;;7.37;6.70;;;;;;;30.12;72.49;100404.63;4938986;28;20235;-76
2022/07/23 10:52:13;;;;;;;7.30;6.73;;;;;;;30.06;72.82;100403.34;4955553;28;20194;-77
2022/07/23 10:55:22;;;;;;;7.27;6.77;;;;;;;30.06;72.33;100397.19;4944112;28;20195;-77
2022/07/23 10:57:50;;;;;;;7.53;7.03;;;;;;;30.03;72.55;100402.78;4926192;28;20545;-77
2022/07/23 11:00:20;;;;;;;6.87;6.37;;;;;;;30.06;72.35;100405.19;4944582;29;20203;-76
2022/07/23 11:02:47;;;;;;;7.57;6.97;;;;;;;30.10;72.68;100401.28;4943469;28;20188;-78
2022/07/23 11:05:19;;;;;;;7.50;6.90;;;;;;;30.18;72.31;100403.22;4946230;28;20195;-78
2022/07/23 11:08:03;;;;;;;7.60;6.97;;;;;;;30.20;72.69;100406.59;4941099;28;20219;-77
2022/07/23 11:10:39;;;;;;;7.40;6.90;;;;;;;30.23;72.74;100401.84;4968414;28;20187;-75
2022/07/23 11:13:24;;;;;;;7.63;7.03;;;;;;;30.33;72.42;100401.81;4940577;29;20215;-76
2022/07/23 11:16:04;;;;;;;6.80;6.30;;;;;;;30.47;71.82;100405.91;4938619;28;20230;-76
2022/07/23 11:18:57;;;;;;;7.07;6.63;;;;;;;30.67;72.03;100398.75;4956503;28;20301;-76
2022/07/23 11:21:23;;;;;;;7.50;6.90;;;;;;;30.92;71.66;100403.66;4938593;28;20211;-76
2022/07/23 11:24:06;;;;;;;7.45;6.95;;;;;;;31.11;71.20;100394.72;4965174;28;20215;-76
2022/07/23 11:26:43;;;;;;;7.00;6.60;;;;;;;31.26;71.30;100398.66;4952949;28;20206;-77
2022/07/23 11:29:36;;;;;;;6.87;6.40;;;;;;;31.32;69.12;100397.22;4961600;28;20234;-77